FBSK/GBE METAR and TAF weather

Enter ICAO airport designator
Station Type Date Time Source
FBSK METAR 2019/06/18 12:00 UTC NOAA

FBSK 181200Z 14009KT 090V170 CAVOK 22/M06 Q1027 NOSIG


Station Type Date Time Source
FBSK Decoded METAR 2019/06/18 12:00 UTC NOAA

Seretse Khama International Airport, Botswana (FBSK) 24-13S 025-55E 1005M
Jun 18, 2019 - 08:00 AM EDT / 2019.06.18 1200 UTC
Wind: from the SE (140 degrees) at 10 MPH (9 KT) (direction variable):0
Visibility: greater than 7 mile(s):0
Temperature: 71 F (22 C)
Dew Point: 21 F (-6 C)
Relative Humidity: 14%
Pressure (altimeter): 30.33 in. Hg (1027 hPa)
ob: FBSK 181200Z 14009KT 090V170 CAVOK 22/M06 Q1027 NOSIG
cycle: 12

Station Type Date Time Source
FBSK TAF 2019/06/18 06:08 UTC NOAA

TAF FBSK 180300Z 1806/1912 26004KT CAVOK

Example: see airport list